createdAt,value
2018-12-12T00:00:33.529Z,102809.36
2018-12-12T00:01:34.682Z,102813.37
2018-12-12T00:02:35.818Z,102783.95
2018-12-12T00:03:36.949Z,102815.55
2018-12-12T00:04:38.083Z,102804.84
2018-12-12T00:05:39.214Z,102801.33
2018-12-12T00:06:40.349Z,102812.41
2018-12-12T00:07:41.531Z,102812.03
2018-12-12T00:08:42.721Z,102807.52
2018-12-12T00:09:43.883Z,102812.49
2018-12-12T00:10:44.997Z,102812.03
2018-12-12T00:11:46.113Z,102803.13
2018-12-12T00:12:47.685Z,102809.36
2018-12-12T00:13:48.809Z,102810.70
2018-12-12T00:14:49.920Z,102812.03
2018-12-12T00:15:51.053Z,102815.09
2018-12-12T00:16:52.205Z,102814.70
2018-12-12T00:17:53.581Z,102817.39
2018-12-12T00:18:54.706Z,102817.39
2018-12-12T00:19:55.854Z,102801.23
2018-12-12T00:20:56.971Z,102818.72
2018-12-12T00:21:58.102Z,102817.77
2018-12-12T00:22:59.222Z,102819.10
2018-12-12T00:24:00.361Z,102812.03
2018-12-12T00:25:01.470Z,102824.45
2018-12-12T00:26:02.717Z,102822.73
2018-12-12T00:27:03.857Z,102823.12
2018-12-12T00:28:05.001Z,102829.43
2018-12-12T00:29:06.129Z,102825.42
2018-12-12T00:30:07.269Z,102828.09
2018-12-12T00:31:08.389Z,102830.77
2018-12-12T00:32:09.509Z,102825.88
2018-12-12T00:33:10.752Z,102826.75
2018-12-12T00:34:11.886Z,102835.75
2018-12-12T00:35:13.030Z,102831.23
2018-12-12T00:36:14.163Z,102834.41
2018-12-12T00:37:15.297Z,102831.34
2018-12-12T00:38:16.421Z,102839.38
2018-12-12T00:39:17.545Z,102834.02
2018-12-12T00:40:18.666Z,102839.00
2018-12-12T00:41:19.837Z,102842.05
2018-12-12T00:42:20.956Z,102838.50
2018-12-12T00:43:22.073Z,102842.14
2018-12-12T00:44:23.193Z,102838.50
2018-12-12T00:45:24.321Z,102837.16
2018-12-12T00:46:25.453Z,102843.02
2018-12-12T00:47:26.586Z,102844.73
2018-12-12T00:48:27.719Z,102843.02
2018-12-12T00:49:28.848Z,102851.05
2018-12-12T00:50:29.977Z,102848.75
2018-12-12T00:51:31.241Z,102853.22
2018-12-12T00:52:32.429Z,102852.38
2018-12-12T00:53:33.561Z,102848.75
2018-12-12T00:54:34.836Z,102842.44
2018-12-12T00:55:35.965Z,102840.14
2018-12-12T00:56:37.090Z,102842.32
2018-12-12T00:57:38.233Z,102844.53
2018-12-12T00:58:39.410Z,102839.19
2018-12-12T00:59:40.539Z,102848.44
2018-12-12T01:00:41.663Z,102843.96
2018-12-12T01:01:42.797Z,102845.30
2018-12-12T01:02:43.949Z,102846.64
2018-12-12T01:03:45.094Z,102849.20
2018-12-12T01:04:46.245Z,102847.86
2018-12-12T01:05:47.366Z,102852.38
2018-12-12T01:06:48.481Z,102852.38
2018-12-12T01:07:49.622Z,102853.70
2018-12-12T01:08:50.788Z,102854.09
2018-12-12T01:09:52.026Z,102859.45
2018-12-12T01:11:05.989Z,102851.88
2018-12-12T01:12:09.153Z,102853.59
2018-12-12T01:13:10.273Z,102852.83
2018-12-12T01:14:11.393Z,102860.41
2018-12-12T01:15:12.521Z,102858.19
2018-12-12T01:16:13.649Z,102858.69
2018-12-12T01:17:14.767Z,102863.54
2018-12-12T01:18:15.918Z,102866.72
2018-12-12T01:19:17.057Z,102868.52
2018-12-12T01:20:18.181Z,102867.67
2018-12-12T01:21:19.298Z,102861.44
2018-12-12T01:22:20.425Z,102870.43
2018-12-12T01:23:21.529Z,102867.29
2018-12-12T01:24:22.689Z,102871.30
2018-12-12T01:25:23.828Z,102872.64
2018-12-12T01:26:24.986Z,102882.86
2018-12-12T01:27:26.136Z,102876.28
2018-12-12T01:28:27.264Z,102881.14
2018-12-12T01:29:28.381Z,102875.78
2018-12-12T01:30:29.501Z,102873.22
2018-12-12T01:31:30.617Z,102870.92
2018-12-12T01:32:31.731Z,102874.06
2018-12-12T01:33:32.834Z,102870.43
2018-12-12T01:34:33.967Z,102874.56
2018-12-12T01:35:35.118Z,102871.01
2018-12-12T01:36:36.245Z,102868.33
2018-12-12T01:37:37.349Z,102874.18
2018-12-12T01:38:38.465Z,102877.31
2018-12-12T01:39:39.585Z,102879.03
2018-12-12T01:40:40.700Z,102877.31
2018-12-12T01:41:41.822Z,102880.48
2018-12-12T01:42:42.934Z,102881.33
2018-12-12T01:43:50.961Z,102882.29
2018-12-12T01:44:52.079Z,102888.52
2018-12-12T01:45:53.217Z,102879.53
2018-12-12T01:46:54.333Z,102892.53
2018-12-12T01:47:55.457Z,102892.16
2018-12-12T01:48:56.586Z,102893.49
2018-12-12T01:50:04.777Z,102899.23
2018-12-12T01:51:05.968Z,102893.88
2018-12-12T01:52:07.151Z,102894.34
2018-12-12T01:53:08.267Z,102896.55
2018-12-12T01:54:09.394Z,102897.51
2018-12-12T01:55:10.521Z,102903.70
2018-12-12T01:56:11.657Z,102910.40
2018-12-12T01:57:12.775Z,102902.75
2018-12-12T01:58:13.910Z,102907.64
2018-12-12T01:59:15.029Z,102909.94
2018-12-12T02:00:16.161Z,102910.31
2018-12-12T02:01:24.238Z,102913.38
2018-12-12T02:02:25.378Z,102916.05
2018-12-12T02:03:26.478Z,102913.84
2018-12-12T02:04:27.592Z,102916.05
2018-12-12T02:05:28.713Z,102910.70
2018-12-12T02:06:36.796Z,102917.01
2018-12-12T02:07:37.914Z,102916.52
2018-12-12T02:08:39.058Z,102909.82
2018-12-12T02:09:40.169Z,102918.73
2018-12-12T02:10:41.355Z,102917.01
2018-12-12T02:13:02.474Z,102916.05
2018-12-12T02:14:03.626Z,102915.67
2018-12-12T02:15:05.002Z,102915.67
2018-12-12T02:16:07.178Z,102915.67
2018-12-12T02:17:08.306Z,102919.69
2018-12-12T02:18:09.437Z,102924.16
2018-12-12T02:19:10.564Z,102921.98
2018-12-12T02:20:11.938Z,102926.38
2018-12-12T02:21:13.178Z,102921.98
2018-12-12T02:22:14.305Z,102927.34
2018-12-12T02:23:15.433Z,102922.06
2018-12-12T02:24:16.574Z,102916.25
2018-12-12T02:25:17.697Z,102930.47
2018-12-12T02:26:18.844Z,102928.30
2018-12-12T02:27:19.952Z,102923.89
2018-12-12T02:28:21.062Z,102930.09
2018-12-12T02:29:22.193Z,102928.30
2018-12-12T02:30:23.310Z,102934.60
2018-12-12T02:31:24.442Z,102929.70
2018-12-12T02:32:25.569Z,102933.27
2018-12-12T02:33:26.713Z,102931.55
2018-12-12T02:34:27.843Z,102930.20
2018-12-12T02:35:28.981Z,102936.89
2018-12-12T02:36:30.125Z,102933.34
2018-12-12T02:37:31.278Z,102934.22
2018-12-12T02:38:32.411Z,102936.89
2018-12-12T02:39:33.540Z,102931.63
2018-12-12T02:40:34.669Z,102937.85
2018-12-12T02:41:35.930Z,102936.52
2018-12-12T02:42:37.062Z,102935.17
2018-12-12T02:43:38.186Z,102934.30
2018-12-12T02:44:39.299Z,102931.63
2018-12-12T02:45:40.450Z,102935.64
2018-12-12T02:46:41.701Z,102933.45
2018-12-12T02:47:42.814Z,102935.17
2018-12-12T02:48:43.980Z,102933.53
2018-12-12T02:49:45.086Z,102938.42
2018-12-12T02:50:46.220Z,102936.13
2018-12-12T02:51:47.370Z,102940.14
2018-12-12T02:52:55.394Z,102942.44
2018-12-12T02:53:56.518Z,102944.63
2018-12-12T02:54:57.642Z,102940.72
2018-12-12T02:55:58.791Z,102941.09
2018-12-12T02:56:59.913Z,102946.45
2018-12-12T02:58:01.058Z,102947.80
2018-12-12T02:59:02.194Z,102941.56
2018-12-12T03:00:04.900Z,102948.63
2018-12-12T03:01:06.111Z,102950.85
2018-12-12T03:02:07.271Z,102951.23
2018-12-12T03:03:08.389Z,102956.09
2018-12-12T03:04:09.530Z,102956.97
2018-12-12T03:05:10.789Z,102953.80
2018-12-12T03:06:11.913Z,102950.28
2018-12-12T03:07:13.025Z,102951.62
2018-12-12T03:08:14.257Z,102956.02
2018-12-12T03:09:15.377Z,102956.78
2018-12-12T03:10:16.506Z,102959.08
2018-12-12T03:11:19.691Z,102952.77
2018-12-12T03:12:20.820Z,102954.11
2018-12-12T03:13:21.951Z,102960.30
2018-12-12T03:14:23.073Z,102959.45
2018-12-12T03:15:24.276Z,102953.15
2018-12-12T03:16:25.469Z,102956.28
2018-12-12T03:17:33.517Z,102957.16
2018-12-12T03:18:34.634Z,102962.02
2018-12-12T03:19:35.778Z,102956.67
2018-12-12T03:20:36.913Z,102964.70
2018-12-12T03:21:38.033Z,102963.86
2018-12-12T03:22:39.163Z,102964.31
2018-12-12T03:23:40.294Z,102971.50
2018-12-12T03:24:41.417Z,102968.83
2018-12-12T03:25:42.539Z,102964.81
2018-12-12T03:26:43.673Z,102971.50
2018-12-12T03:27:44.805Z,102974.18
2018-12-12T03:28:45.929Z,102967.11
2018-12-12T03:29:47.033Z,102970.62
2018-12-12T03:30:48.156Z,102972.46
2018-12-12T03:31:49.279Z,102976.94
2018-12-12T03:32:50.402Z,102982.29
2018-12-12T03:33:51.637Z,102979.61
2018-12-12T03:34:52.758Z,102983.73
2018-12-12T03:35:53.881Z,102982.86
2018-12-12T03:36:55.015Z,102990.43
2018-12-12T03:37:56.134Z,102988.71
2018-12-12T03:38:57.333Z,102992.73
2018-12-12T03:39:58.895Z,102989.66
2018-12-12T03:41:00.071Z,102991.00
2018-12-12T03:42:01.246Z,102994.64
2018-12-12T03:43:02.424Z,102989.74
2018-12-12T03:44:03.598Z,102991.95
2018-12-12T03:45:04.880Z,102990.23
2018-12-12T03:46:06.009Z,102991.58
2018-12-12T03:47:07.135Z,102992.42
2018-12-12T03:48:08.245Z,102989.36
2018-12-12T03:49:09.411Z,102990.23
2018-12-12T03:50:10.550Z,102992.03
2018-12-12T03:51:11.678Z,102984.00
2018-12-12T03:52:12.826Z,102990.80
2018-12-12T03:53:13.931Z,102995.28
2018-12-12T03:54:15.057Z,102994.44
2018-12-12T03:55:16.183Z,102998.84
2018-12-12T03:56:17.308Z,102995.39
2018-12-12T03:57:18.450Z,102998.45
2018-12-12T03:58:19.603Z,102990.88
2018-12-12T03:59:20.747Z,102994.90
2018-12-12T04:00:21.894Z,102995.39
2018-12-12T04:01:23.027Z,103001.20
2018-12-12T04:02:24.161Z,102995.78
2018-12-12T04:03:25.286Z,102998.07
2018-12-12T04:04:26.412Z,102995.39
2018-12-12T04:05:27.533Z,102995.39
2018-12-12T04:06:28.655Z,102995.39
2018-12-12T04:07:29.802Z,102995.39
2018-12-12T04:08:30.961Z,102995.39
2018-12-12T04:09:32.157Z,102998.07
2018-12-12T04:10:33.296Z,102985.14
2018-12-12T04:11:34.511Z,102990.88
2018-12-12T04:12:35.633Z,102990.42
2018-12-12T04:13:36.775Z,102988.20
2018-12-12T04:14:37.925Z,102982.01
2018-12-12T04:15:39.320Z,102986.41
2018-12-12T04:16:40.469Z,102984.20
2018-12-12T04:17:48.573Z,102985.45
2018-12-12T04:18:49.930Z,102985.91
2018-12-12T04:19:51.040Z,102985.45
2018-12-12T04:20:52.178Z,102992.53
2018-12-12T04:22:00.301Z,102988.52
2018-12-12T04:23:01.567Z,102992.14
2018-12-12T04:24:02.784Z,102988.59
2018-12-12T04:25:04.586Z,102990.31
2018-12-12T04:26:05.702Z,102994.33
2018-12-12T04:27:06.830Z,102998.34
2018-12-12T04:28:07.949Z,102995.20
2018-12-12T04:29:09.072Z,102994.82
2018-12-12T04:30:10.198Z,102998.84
2018-12-12T04:31:11.317Z,103002.85
2018-12-12T04:32:12.426Z,102998.84
2018-12-12T04:33:13.543Z,103003.70
2018-12-12T04:34:14.684Z,103001.12
2018-12-12T04:35:15.815Z,103006.48
2018-12-12T04:36:16.942Z,103007.82
2018-12-12T04:37:18.085Z,103006.87
2018-12-12T04:38:19.197Z,103013.17
2018-12-12T04:39:20.322Z,103005.14
2018-12-12T04:40:21.437Z,103015.47
2018-12-12T04:41:22.694Z,103012.79
2018-12-12T04:42:23.821Z,103013.17
2018-12-12T04:43:24.957Z,103010.11
2018-12-12T04:44:26.070Z,103011.03
2018-12-12T04:45:27.187Z,103016.39
2018-12-12T04:46:28.315Z,103021.73
2018-12-12T04:47:29.429Z,103018.22
2018-12-12T04:48:30.541Z,103014.20
2018-12-12T04:49:31.667Z,103013.82
2018-12-12T04:50:32.790Z,103017.27
2018-12-12T04:51:33.929Z,103016.00
2018-12-12T04:52:35.112Z,103018.22
2018-12-12T04:53:36.236Z,103015.55
2018-12-12T04:54:37.367Z,103021.36
2018-12-12T04:55:38.511Z,103017.34
2018-12-12T04:56:39.613Z,103021.36
2018-12-12T04:57:40.771Z,103027.20
2018-12-12T04:58:41.879Z,103029.00
2018-12-12T04:59:43.001Z,103036.57
2018-12-12T05:00:44.129Z,103042.30
2018-12-12T05:01:45.243Z,103041.43
2018-12-12T05:02:46.736Z,103046.78
2018-12-12T05:03:47.913Z,103043.72
2018-12-12T05:04:49.494Z,103047.73
2018-12-12T05:05:50.613Z,103044.60
2018-12-12T05:06:51.753Z,103046.40
2018-12-12T05:07:53.001Z,103042.38
2018-12-12T05:08:54.118Z,103043.72
2018-12-12T05:09:55.237Z,103047.28
2018-12-12T05:10:56.333Z,103042.38
2018-12-12T05:11:57.471Z,103037.03
2018-12-12T05:12:58.595Z,103040.09
2018-12-12T05:13:59.841Z,103035.69
2018-12-12T05:15:00.970Z,103036.08
2018-12-12T05:16:02.078Z,103039.70
2018-12-12T05:17:03.350Z,103039.70
2018-12-12T05:18:04.471Z,103042.77
2018-12-12T05:19:05.602Z,103044.98
2018-12-12T05:20:06.801Z,103051.19
2018-12-12T05:21:07.937Z,103049.84
2018-12-12T05:22:09.069Z,103049.00
2018-12-12T05:23:10.195Z,103046.25
2018-12-12T05:24:11.433Z,103047.58
2018-12-12T05:25:12.550Z,103048.43
2018-12-12T05:26:13.681Z,103050.65
2018-12-12T05:27:14.800Z,103053.33
2018-12-12T05:28:22.817Z,103052.45
2018-12-12T05:29:23.952Z,103051.98
2018-12-12T05:30:25.089Z,103049.31
2018-12-12T05:31:26.205Z,103049.69
2018-12-12T05:32:27.321Z,103050.65
2018-12-12T05:33:28.445Z,103051.98
2018-12-12T05:34:29.546Z,103053.33
2018-12-12T05:35:30.673Z,103056.00
2018-12-12T05:36:31.805Z,103063.53
2018-12-12T05:37:32.939Z,103068.43
2018-12-12T05:38:34.064Z,103065.37
2018-12-12T05:39:35.181Z,103061.36
2018-12-12T05:40:37.409Z,103062.30
2018-12-12T05:41:38.546Z,103064.03
2018-12-12T05:42:39.813Z,103055.61
2018-12-12T05:43:40.933Z,103054.73
2018-12-12T05:44:42.180Z,103058.29
2018-12-12T05:45:43.434Z,103052.94
2018-12-12T05:46:44.562Z,103059.63
2018-12-12T05:47:45.691Z,103055.61
2018-12-12T05:48:46.797Z,103062.30
2018-12-12T05:49:47.971Z,103059.70
2018-12-12T05:50:49.105Z,103070.41
2018-12-12T05:51:50.222Z,103067.23
2018-12-12T05:52:51.350Z,103062.84
2018-12-12T05:53:52.478Z,103068.58
2018-12-12T05:54:53.608Z,103060.16
2018-12-12T05:55:54.751Z,103065.91
2018-12-12T05:56:55.862Z,103061.50
2018-12-12T05:57:56.986Z,103066.40
2018-12-12T05:58:58.101Z,103064.18
2018-12-12T05:59:59.217Z,103066.86
2018-12-12T06:01:00.353Z,103064.56
2018-12-12T06:02:01.475Z,103069.08
2018-12-12T06:03:02.748Z,103065.13
2018-12-12T06:04:03.882Z,103066.97
2018-12-12T06:05:05.065Z,103070.87
2018-12-12T06:06:06.211Z,103069.53
2018-12-12T06:07:07.334Z,103078.52
2018-12-12T06:08:08.445Z,103078.52
2018-12-12T06:09:10.544Z,103079.39
2018-12-12T06:10:11.677Z,103085.59
2018-12-12T06:11:12.794Z,103082.91
2018-12-12T06:12:13.922Z,103080.23
2018-12-12T06:13:15.035Z,103076.72
2018-12-12T06:14:16.145Z,103074.05
2018-12-12T06:15:17.266Z,103073.55
2018-12-12T06:16:18.409Z,103078.90
2018-12-12T06:17:19.541Z,103081.58
2018-12-12T06:18:20.665Z,103072.20
2018-12-12T06:19:21.778Z,103078.52
2018-12-12T06:20:22.905Z,103076.61
2018-12-12T06:21:24.030Z,103083.80
2018-12-12T06:22:25.385Z,103088.27
2018-12-12T06:23:26.512Z,103089.99
2018-12-12T06:24:27.659Z,103086.93
2018-12-12T06:25:28.808Z,103088.27
2018-12-12T06:26:29.924Z,103094.00
2018-12-12T06:27:31.042Z,103090.95
2018-12-12T06:28:32.175Z,103091.33
2018-12-12T06:29:33.289Z,103089.99
2018-12-12T06:30:34.432Z,103090.87
2018-12-12T06:31:35.557Z,103093.94
2018-12-12T06:32:36.757Z,103094.81
2018-12-12T06:33:37.890Z,103094.70
2018-12-12T06:34:39.001Z,103098.53
2018-12-12T06:35:40.121Z,103094.52
2018-12-12T06:36:41.257Z,103095.78
2018-12-12T06:37:42.390Z,103097.78
2018-12-12T06:38:43.542Z,103096.83
2018-12-12T06:39:44.682Z,103100.77
2018-12-12T06:40:45.798Z,103103.34
2018-12-12T06:41:46.925Z,103102.39
2018-12-12T06:42:48.044Z,103102.31
2018-12-12T06:43:49.183Z,103104.03
2018-12-12T06:44:50.301Z,103104.49
2018-12-12T06:45:51.429Z,103101.36
2018-12-12T06:46:59.625Z,103104.87
2018-12-12T06:48:00.765Z,103105.27
2018-12-12T06:49:01.890Z,103108.82
2018-12-12T06:50:03.677Z,103112.45
2018-12-12T06:51:04.873Z,103106.71
2018-12-12T06:52:05.995Z,103108.05
2018-12-12T06:53:07.102Z,103107.67
2018-12-12T06:54:08.230Z,103116.65
2018-12-12T06:55:09.469Z,103112.25
2018-12-12T06:56:10.605Z,103111.37
2018-12-12T06:57:11.739Z,103115.95
2018-12-12T06:58:12.858Z,103120.84
2018-12-12T06:59:13.974Z,103120.08
2018-12-12T07:00:15.121Z,103125.05
2018-12-12T07:01:16.238Z,103121.59
2018-12-12T07:02:17.353Z,103121.21
2018-12-12T07:03:18.472Z,103121.21
2018-12-12T07:04:19.593Z,103120.83
2018-12-12T07:05:20.714Z,103120.33
2018-12-12T07:06:21.838Z,103122.17
2018-12-12T07:07:23.105Z,103123.58
2018-12-12T07:08:24.256Z,103119.56
2018-12-12T07:09:25.388Z,103123.20
2018-12-12T07:10:26.537Z,103129.88
2018-12-12T07:11:27.666Z,103124.64
2018-12-12T07:12:28.793Z,103134.39
2018-12-12T07:13:35.538Z,103130.84
2018-12-12T07:14:33.065Z,103130.95
2018-12-12T07:15:34.325Z,103124.25
2018-12-12T07:16:35.452Z,103137.25
2018-12-12T07:17:37.527Z,103131.48
2018-12-12T07:18:38.649Z,103125.73
2018-12-12T07:19:39.773Z,103132.81
2018-12-12T07:20:41.016Z,103120.88
2018-12-12T07:21:42.145Z,103129.37
2018-12-12T07:22:43.271Z,103136.45
2018-12-12T07:23:44.385Z,103133.38
2018-12-12T07:24:45.498Z,103131.77
2018-12-12T07:25:46.646Z,103134.91
2018-12-12T07:26:47.881Z,103130.32
2018-12-12T07:27:49.009Z,103126.02
2018-12-12T07:28:50.145Z,103133.11
2018-12-12T07:29:51.257Z,103137.50
2018-12-12T07:30:52.394Z,103135.39
2018-12-12T07:31:53.514Z,103131.77
2018-12-12T07:32:54.675Z,103136.16
2018-12-12T07:34:00.969Z,103128.21
2018-12-12T07:34:59.285Z,103132.23
2018-12-12T07:36:00.423Z,103142.47
2018-12-12T07:37:01.573Z,103140.18
2018-12-12T07:38:02.853Z,103140.18
2018-12-12T07:39:06.529Z,103128.59
2018-12-12T07:40:07.833Z,103141.91
2018-12-12T07:41:08.949Z,103131.66
2018-12-12T07:42:10.070Z,103133.00
2018-12-12T07:43:11.233Z,103133.38
2018-12-12T07:44:12.367Z,103132.05
2018-12-12T07:45:13.649Z,103126.69
2018-12-12T07:46:14.781Z,103131.20
2018-12-12T07:47:15.914Z,103137.40
2018-12-12T07:48:17.143Z,103134.33
2018-12-12T07:49:18.413Z,103145.43
2018-12-12T07:50:19.541Z,103144.09
2018-12-12T07:51:20.666Z,103157.02
2018-12-12T07:52:21.811Z,103152.50
2018-12-12T07:53:22.921Z,103149.44
2018-12-12T07:54:24.050Z,103144.58
2018-12-12T07:55:25.173Z,103149.94
2018-12-12T07:56:26.298Z,103149.44
2018-12-12T07:57:27.419Z,103151.73
2018-12-12T07:58:28.553Z,103150.01
2018-12-12T07:59:29.681Z,103150.39
2018-12-12T08:00:30.837Z,103151.84
2018-12-12T08:01:31.973Z,103162.44
2018-12-12T08:02:33.109Z,103161.66
2018-12-12T08:03:34.238Z,103159.87
2018-12-12T08:04:35.361Z,103155.92
2018-12-12T08:05:36.497Z,103167.51
2018-12-12T08:06:37.621Z,103156.31
2018-12-12T08:07:38.737Z,103161.77
2018-12-12T08:08:39.897Z,103162.61
2018-12-12T08:09:41.126Z,103166.24
2018-12-12T08:10:42.256Z,103165.40
2018-12-12T08:11:43.387Z,103164.52
2018-12-12T08:12:44.519Z,103168.92
2018-12-12T08:13:45.622Z,103177.52
2018-12-12T08:14:46.749Z,103172.66
2018-12-12T08:15:47.882Z,103167.76
2018-12-12T08:16:49.003Z,103171.31
2018-12-12T08:17:50.229Z,103172.66
2018-12-12T08:18:51.377Z,103172.66
2018-12-12T08:19:52.531Z,103172.66
2018-12-12T08:20:53.677Z,103177.12
2018-12-12T08:21:54.809Z,103169.09
2018-12-12T08:22:56.669Z,103178.85
2018-12-12T08:23:57.790Z,103182.48
2018-12-12T08:24:58.889Z,103178.47
2018-12-12T08:26:00.152Z,103177.52
2018-12-12T08:27:01.264Z,103182.87
2018-12-12T08:28:02.515Z,103187.83
2018-12-12T08:29:03.702Z,103183.81
2018-12-12T08:30:06.373Z,103188.78
2018-12-12T08:31:07.505Z,103185.72
2018-12-12T08:32:08.642Z,103186.11
2018-12-12T08:33:11.338Z,103189.27
2018-12-12T08:34:12.829Z,103185.72
2018-12-12T08:35:13.965Z,103185.72
2018-12-12T08:36:15.086Z,103182.66
2018-12-12T08:37:16.197Z,103194.23
2018-12-12T08:38:17.376Z,103196.03
2018-12-12T08:39:18.510Z,103197.38
2018-12-12T08:40:19.649Z,103196.03
2018-12-12T08:41:20.807Z,103192.52
2018-12-12T08:42:21.957Z,103203.61
2018-12-12T08:43:23.085Z,103205.41
2018-12-12T08:44:24.214Z,103211.63
2018-12-12T08:45:25.359Z,103207.62
2018-12-12T08:46:26.482Z,103213.81
2018-12-12T08:47:27.605Z,103205.41
2018-12-12T08:48:28.719Z,103203.61
2018-12-12T08:49:29.841Z,103208.47
2018-12-12T08:50:38.083Z,103208.85
2018-12-12T08:51:39.206Z,103209.34
2018-12-12T08:52:40.330Z,103212.87
2018-12-12T08:53:41.443Z,103213.36
2018-12-12T08:54:42.605Z,103203.99
2018-12-12T08:55:43.734Z,103209.34
2018-12-12T08:56:44.858Z,103211.07
2018-12-12T08:57:45.990Z,103206.17
2018-12-12T08:58:47.121Z,103214.59
2018-12-12T08:59:48.263Z,103214.59
2018-12-12T09:00:49.404Z,103218.61
2018-12-12T09:01:50.851Z,103213.64
2018-12-12T09:02:51.998Z,103208.29
2018-12-12T09:03:53.144Z,103214.03
2018-12-12T09:04:54.269Z,103213.19
2018-12-12T09:05:55.390Z,103212.30
2018-12-12T09:06:56.493Z,103210.12
2018-12-12T09:07:57.681Z,103205.16
2018-12-12T09:08:58.826Z,103210.97
2018-12-12T09:09:59.961Z,103214.98
2018-12-12T09:11:01.114Z,103214.98
2018-12-12T09:12:02.389Z,103210.97
2018-12-12T09:13:03.526Z,103208.29
2018-12-12T09:14:04.645Z,103214.13
2018-12-12T09:15:06.009Z,103210.12
2018-12-12T09:16:07.114Z,103215.86
2018-12-12T09:17:09.886Z,103213.64
2018-12-12T09:18:11.317Z,103209.63
2018-12-12T09:19:12.425Z,103217.66
2018-12-12T09:20:13.580Z,103214.20
2018-12-12T09:21:14.803Z,103210.58
2018-12-12T09:22:15.936Z,103216.42
2018-12-12T09:23:17.076Z,103215.09
2018-12-12T09:24:18.201Z,103215.54
2018-12-12T09:25:19.326Z,103216.87
2018-12-12T09:26:20.434Z,103215.54
2018-12-12T09:27:21.578Z,103213.43
2018-12-12T09:28:22.686Z,103215.16
2018-12-12T09:29:23.799Z,103207.62
2018-12-12T09:30:24.930Z,103211.14
2018-12-12T09:31:26.066Z,103209.41
2018-12-12T09:32:27.177Z,103200.92
2018-12-12T09:33:28.318Z,103207.69
2018-12-12T09:34:29.438Z,103208.18
2018-12-12T09:35:30.547Z,103206.34
2018-12-12T09:36:31.661Z,103210.36
2018-12-12T09:37:32.822Z,103204.17
2018-12-12T09:38:33.966Z,103213.99
2018-12-12T09:39:35.094Z,103198.43
2018-12-12T09:40:36.461Z,103209.59
2018-12-12T09:41:37.590Z,103212.20
2018-12-12T09:42:38.709Z,103210.93
2018-12-12T09:43:39.829Z,103209.59
2018-12-12T09:44:40.957Z,103214.94
2018-12-12T09:45:42.077Z,103212.27
2018-12-12T09:46:43.217Z,103212.27
2018-12-12T09:47:44.356Z,103220.30
2018-12-12T09:48:45.511Z,103221.63
2018-12-12T09:49:46.625Z,103222.52
2018-12-12T09:50:47.781Z,103222.13
2018-12-12T09:51:48.922Z,103222.97
2018-12-12T09:52:50.032Z,103221.63
2018-12-12T09:53:51.148Z,103219.84
2018-12-12T09:54:52.273Z,103220.68
2018-12-12T09:55:53.385Z,103226.03
2018-12-12T09:56:54.494Z,103227.86
2018-12-12T09:57:55.614Z,103222.41
2018-12-12T09:58:56.764Z,103223.36
2018-12-12T09:59:57.881Z,103222.80
2018-12-12T10:00:59.013Z,103221.95
2018-12-12T10:02:00.122Z,103224.62
2018-12-12T10:03:01.246Z,103224.62
2018-12-12T10:04:02.517Z,103227.77
2018-12-12T10:05:03.865Z,103224.13
2018-12-12T10:06:04.995Z,103227.30
2018-12-12T10:07:06.146Z,103221.84
2018-12-12T10:08:07.297Z,103231.70
2018-12-12T10:09:08.417Z,103222.80
2018-12-12T10:10:09.529Z,103223.67
2018-12-12T10:11:10.658Z,103223.67
2018-12-12T10:12:11.789Z,103229.87
2018-12-12T10:13:12.921Z,103235.23
2018-12-12T10:14:14.034Z,103233.89
2018-12-12T10:15:15.182Z,103228.53
2018-12-12T10:16:16.317Z,103225.86
2018-12-12T10:17:17.458Z,103229.42
2018-12-12T10:18:18.586Z,103231.21
2018-12-12T10:19:19.698Z,103231.21
2018-12-12T10:20:20.830Z,103225.47
2018-12-12T10:21:21.962Z,103229.48
2018-12-12T10:22:23.095Z,103225.47
2018-12-12T10:23:24.215Z,103229.03
2018-12-12T10:24:25.345Z,103225.47
2018-12-12T10:25:26.470Z,103232.55
2018-12-12T10:26:27.631Z,103226.81
2018-12-12T10:27:28.742Z,103233.04
2018-12-12T10:28:29.853Z,103230.44
2018-12-12T10:29:30.974Z,103231.77
2018-12-12T10:30:32.211Z,103229.09
2018-12-12T10:31:33.374Z,103232.27
2018-12-12T10:32:34.494Z,103234.06
2018-12-12T10:33:37.864Z,103228.32
2018-12-12T10:34:38.780Z,103244.31
2018-12-12T10:35:39.906Z,103234.16
2018-12-12T10:36:41.022Z,103234.16
2018-12-12T10:37:42.146Z,103234.62
2018-12-12T10:38:43.286Z,103230.61
2018-12-12T10:39:44.441Z,103234.62
2018-12-12T10:40:45.569Z,103232.44
2018-12-12T10:41:46.698Z,103237.30
2018-12-12T10:42:47.829Z,103239.59
2018-12-12T10:43:48.960Z,103239.20
2018-12-12T10:44:50.099Z,103234.23
2018-12-12T10:45:51.241Z,103235.58
2018-12-12T10:46:52.357Z,103236.06
2018-12-12T10:47:53.478Z,103233.39
2018-12-12T10:48:54.602Z,103227.65
2018-12-12T10:49:55.732Z,103231.17
2018-12-12T10:50:56.853Z,103235.19
2018-12-12T10:51:57.970Z,103231.66
2018-12-12T10:52:59.095Z,103241.88
2018-12-12T10:54:00.966Z,103229.45
2018-12-12T10:55:03.676Z,103236.59
2018-12-12T10:56:04.801Z,103240.15
2018-12-12T10:57:05.929Z,103232.12
2018-12-12T10:58:07.054Z,103232.51
2018-12-12T10:59:08.188Z,103221.42
2018-12-12T11:00:12.752Z,103229.38
2018-12-12T11:01:18.578Z,103225.82
2018-12-12T11:02:25.934Z,103220.01
2018-12-12T11:03:32.302Z,103229.77
2018-12-12T11:04:33.434Z,103226.14
2018-12-12T11:05:34.689Z,103228.42
2018-12-12T11:06:35.829Z,103224.88
2018-12-12T11:07:36.955Z,103226.20
2018-12-12T11:08:38.074Z,103228.88
2018-12-12T11:09:39.226Z,103227.55
2018-12-12T11:10:40.489Z,103230.22
2018-12-12T11:11:41.649Z,103229.77
2018-12-12T11:12:42.790Z,103229.27
2018-12-12T11:13:43.926Z,103234.62
2018-12-12T11:14:45.059Z,103234.62
2018-12-12T11:15:46.181Z,103237.30
2018-12-12T11:16:47.302Z,103235.58
2018-12-12T11:17:48.425Z,103239.13
2018-12-12T11:18:49.545Z,103234.16
2018-12-12T11:19:50.693Z,103231.95
2018-12-12T11:20:51.829Z,103239.52
2018-12-12T11:21:52.956Z,103237.30
2018-12-12T11:22:54.090Z,103243.98
2018-12-12T11:23:55.238Z,103242.66
2018-12-12T11:24:56.724Z,103247.05
2018-12-12T11:25:57.832Z,103246.59
2018-12-12T11:26:58.961Z,103241.31
2018-12-12T11:28:00.074Z,103246.20
2018-12-12T11:29:01.190Z,103251.95
2018-12-12T11:30:04.495Z,103249.34
2018-12-12T11:31:05.761Z,103248.88
2018-12-12T11:32:06.997Z,103256.03
2018-12-12T11:33:08.126Z,103247.16
2018-12-12T11:34:09.361Z,103249.90
2018-12-12T11:35:10.511Z,103255.25
2018-12-12T11:36:11.630Z,103252.58
2018-12-12T11:37:19.733Z,103255.25
2018-12-12T11:38:20.861Z,103251.73
2018-12-12T11:39:22.010Z,103257.54
2018-12-12T11:40:23.145Z,103258.00
2018-12-12T11:41:24.261Z,103258.88